Marica, Brazil
Current Conditions -  °F | °C
As of 11:00 PM on Saturday 20 Dec 2014 (Local Time) from SBRJ Reporting Station
Clear Clear  
Wind Chill: 77°   Ceiling: Unl
Heat Index: 78°   Visibility: 6mi
Dew Point: 73°   Wind: 2mph
Humidity: 89%   Direction: 170°S
Pressure: 29.77"   Gusts: NA
Location:  22.92°S, 42.82°W
Report Text: SBRJ 210100Z 17002KT CAVOK 25/23 Q1008
Loading
Personal Weather Stations






























Interactive Weather Map New forecast layout! Learn more

10-Day Weather Forecast

Advertisements
Track Severe Weather on mobile